createdAt,value
2019-02-15T00:02:08.307Z,4.10
2019-02-15T00:04:37.679Z,4.00
2019-02-15T00:07:08.427Z,4.00
2019-02-15T00:09:38.019Z,4.00
2019-02-15T00:12:08.317Z,4.00
2019-02-15T00:14:46.395Z,3.90
2019-02-15T00:17:17.822Z,3.90
2019-02-15T00:19:48.835Z,3.90
2019-02-15T00:22:18.298Z,3.90
2019-02-15T00:24:48.063Z,3.90
2019-02-15T00:27:17.552Z,3.90
2019-02-15T00:29:47.079Z,3.90
2019-02-15T00:32:16.739Z,3.80
2019-02-15T00:34:46.173Z,3.80
2019-02-15T00:37:15.712Z,3.90
2019-02-15T00:39:45.161Z,3.80
2019-02-15T00:42:14.613Z,3.70
2019-02-15T00:44:44.054Z,3.70
2019-02-15T00:47:32.989Z,3.80
2019-02-15T00:50:04.119Z,3.90
2019-02-15T00:52:38.039Z,3.80
2019-02-15T00:55:09.965Z,3.70
2019-02-15T00:57:43.923Z,3.60
2019-02-15T01:00:14.989Z,3.60
2019-02-15T01:02:46.074Z,3.50
2019-02-15T01:05:17.169Z,3.50
2019-02-15T01:07:51.037Z,3.50
2019-02-15T01:10:24.831Z,3.50
2019-02-15T01:12:55.925Z,3.50
2019-02-15T01:15:25.359Z,3.40
2019-02-15T01:17:55.092Z,3.40
2019-02-15T01:20:24.495Z,3.40
2019-02-15T01:22:54.142Z,3.40
2019-02-15T01:25:24.622Z,3.40
2019-02-15T01:28:01.469Z,3.40
2019-02-15T01:30:47.722Z,3.40
2019-02-15T01:33:24.700Z,3.30
2019-02-15T01:35:58.557Z,3.20
2019-02-15T01:38:32.802Z,3.10
2019-02-15T01:41:09.575Z,3.10
2019-02-15T01:43:43.714Z,3.00
2019-02-15T01:46:17.588Z,3.00
2019-02-15T01:48:47.196Z,3.00
2019-02-15T01:51:16.673Z,3.00
2019-02-15T01:53:46.221Z,3.10
2019-02-15T01:56:15.656Z,3.10
2019-02-15T01:58:47.975Z,3.10
2019-02-15T02:01:19.176Z,3.10
2019-02-15T02:03:52.029Z,3.10
2019-02-15T02:06:21.781Z,3.10
2019-02-15T02:08:51.238Z,3.00
2019-02-15T02:11:20.683Z,3.00
2019-02-15T02:13:50.432Z,2.90
2019-02-15T02:16:20.227Z,2.90
2019-02-15T02:18:49.663Z,2.70
2019-02-15T02:21:19.356Z,2.60
2019-02-15T02:23:48.817Z,2.60
2019-02-15T02:26:18.379Z,2.50
2019-02-15T02:28:47.882Z,2.50
2019-02-15T02:31:17.438Z,2.60
2019-02-15T02:33:46.865Z,2.50
2019-02-15T02:36:16.394Z,2.50
2019-02-15T02:38:46.218Z,2.50
2019-02-15T02:41:15.636Z,2.60
2019-02-15T02:43:45.253Z,2.60
2019-02-15T02:46:14.775Z,2.60
2019-02-15T02:48:44.240Z,2.60
2019-02-15T02:51:13.686Z,2.60
2019-02-15T02:53:43.253Z,2.60
2019-02-15T02:56:12.639Z,2.50
2019-02-15T02:58:42.278Z,2.40
2019-02-15T03:01:11.726Z,2.30
2019-02-15T03:03:41.250Z,2.30
2019-02-15T03:06:10.705Z,2.30
2019-02-15T03:08:40.267Z,2.30
2019-02-15T03:11:09.718Z,2.30
2019-02-15T03:13:39.255Z,2.30
2019-02-15T03:16:08.743Z,2.20
2019-02-15T03:18:38.294Z,2.10
2019-02-15T03:21:08.543Z,2.10
2019-02-15T03:23:38.283Z,2.10
2019-02-15T03:26:08.600Z,2.20
2019-02-15T03:28:38.282Z,2.20
2019-02-15T03:31:08.574Z,2.10
2019-02-15T03:33:38.292Z,2.10
2019-02-15T03:36:10.231Z,2.10
2019-02-15T03:38:41.299Z,2.10
2019-02-15T03:41:21.523Z,2.00
2019-02-15T03:43:50.977Z,2.00
2019-02-15T03:46:20.476Z,2.10
2019-02-15T03:48:49.916Z,2.10
2019-02-15T03:51:19.487Z,2.10
2019-02-15T03:53:49.258Z,2.20
2019-02-15T03:56:18.651Z,2.20
2019-02-15T03:58:48.330Z,2.10
2019-02-15T04:01:17.847Z,2.10
2019-02-15T04:03:47.356Z,2.20
2019-02-15T04:06:16.809Z,2.20
2019-02-15T04:08:46.379Z,2.30
2019-02-15T04:11:15.827Z,2.30
2019-02-15T04:13:45.381Z,2.20
2019-02-15T04:16:14.853Z,2.30
2019-02-15T04:18:44.394Z,2.20
2019-02-15T04:21:13.917Z,2.20
2019-02-15T04:23:43.396Z,2.10
2019-02-15T04:26:12.866Z,2.10
2019-02-15T04:28:42.408Z,2.10
2019-02-15T04:31:12.199Z,2.10
2019-02-15T04:33:41.633Z,2.00
2019-02-15T04:36:11.438Z,2.00
2019-02-15T04:38:40.863Z,2.00
2019-02-15T04:41:10.627Z,2.00
2019-02-15T04:43:39.978Z,2.00
2019-02-15T04:46:09.618Z,1.90
2019-02-15T04:48:39.050Z,1.90
2019-02-15T04:51:08.760Z,1.90
2019-02-15T04:53:38.430Z,1.90
2019-02-15T04:56:08.695Z,1.90
2019-02-15T04:58:38.364Z,1.90
2019-02-15T05:01:08.749Z,1.90
2019-02-15T05:03:38.446Z,1.90
2019-02-15T05:06:08.774Z,1.90
2019-02-15T05:08:38.450Z,1.90
2019-02-15T05:11:08.699Z,2.00
2019-02-15T05:13:38.425Z,2.00
2019-02-15T05:16:08.772Z,2.10
2019-02-15T05:18:38.474Z,2.00
2019-02-15T05:21:08.723Z,2.00
2019-02-15T05:23:38.412Z,2.00
2019-02-15T05:26:08.729Z,2.00
2019-02-15T05:28:38.508Z,2.10
2019-02-15T05:31:08.737Z,2.20
2019-02-15T05:33:38.411Z,2.10
2019-02-15T05:36:08.734Z,2.20
2019-02-15T05:38:38.536Z,2.20
2019-02-15T05:41:08.759Z,2.20
2019-02-15T05:43:38.459Z,2.20
2019-02-15T05:46:08.719Z,2.20
2019-02-15T05:48:38.174Z,2.20
2019-02-15T05:51:08.738Z,2.20
2019-02-15T05:53:38.477Z,2.30
2019-02-15T05:56:08.801Z,2.30
2019-02-15T05:58:38.545Z,2.30
2019-02-15T06:01:10.628Z,2.40
2019-02-15T06:03:40.169Z,2.40
2019-02-15T06:06:09.708Z,2.40
2019-02-15T06:08:41.349Z,2.40
2019-02-15T06:11:10.981Z,2.40
2019-02-15T06:13:40.613Z,2.50
2019-02-15T06:16:10.130Z,2.50
2019-02-15T06:18:39.595Z,2.50
2019-02-15T06:21:09.072Z,2.50
2019-02-15T06:23:38.604Z,2.50
2019-02-15T06:26:08.822Z,2.50
2019-02-15T06:28:38.545Z,2.50
2019-02-15T06:31:08.829Z,2.50
2019-02-15T06:33:38.302Z,2.60
2019-02-15T06:36:08.846Z,2.60
2019-02-15T06:38:38.578Z,2.60
2019-02-15T06:41:08.910Z,2.60
2019-02-15T06:43:38.563Z,2.60
2019-02-15T06:46:08.873Z,2.60
2019-02-15T06:48:38.607Z,2.60
2019-02-15T06:51:08.853Z,2.70
2019-02-15T06:53:38.578Z,2.70
2019-02-15T06:56:08.892Z,2.70
2019-02-15T06:58:45.645Z,2.70
2019-02-15T07:01:18.653Z,2.70
2019-02-15T07:03:58.652Z,2.70
2019-02-15T07:06:28.082Z,2.80
2019-02-15T07:08:57.698Z,2.90
2019-02-15T07:11:27.149Z,3.00
2019-02-15T07:13:56.754Z,3.10
2019-02-15T07:16:26.254Z,3.10
2019-02-15T07:18:55.776Z,3.10
2019-02-15T07:21:25.275Z,3.10
2019-02-15T07:23:54.778Z,3.10
2019-02-15T07:26:24.275Z,3.10
2019-02-15T07:28:53.725Z,3.20
2019-02-15T07:31:23.159Z,3.20
2019-02-15T07:33:52.729Z,3.30
2019-02-15T07:36:22.184Z,3.30
2019-02-15T07:38:51.753Z,3.30
2019-02-15T07:41:21.227Z,3.30
2019-02-15T07:43:50.785Z,3.40
2019-02-15T07:46:20.255Z,3.40
2019-02-15T07:48:49.737Z,3.50
2019-02-15T07:51:19.269Z,3.50
2019-02-15T07:53:48.821Z,3.60
2019-02-15T07:56:18.301Z,3.70
2019-02-15T07:58:47.923Z,3.80
2019-02-15T08:01:17.362Z,3.90
2019-02-15T08:03:46.887Z,4.00
2019-02-15T08:06:16.329Z,4.10
2019-02-15T08:08:45.859Z,4.10
2019-02-15T08:11:15.382Z,4.20
2019-02-15T08:13:44.855Z,4.30
2019-02-15T08:16:14.377Z,4.30
2019-02-15T08:18:43.903Z,4.40
2019-02-15T08:21:13.386Z,4.60
2019-02-15T08:23:42.871Z,4.60
2019-02-15T08:26:12.397Z,4.70
2019-02-15T08:28:41.919Z,4.90
2019-02-15T08:31:11.295Z,5.00
2019-02-15T08:33:40.794Z,5.20
2019-02-15T08:36:10.224Z,5.30
2019-02-15T08:38:39.771Z,5.40
2019-02-15T08:41:09.291Z,5.50
2019-02-15T08:43:38.767Z,5.70
2019-02-15T08:46:09.123Z,5.80
2019-02-15T08:48:45.901Z,5.90
2019-02-15T08:51:10.006Z,5.90
2019-02-15T08:53:39.762Z,6.00
2019-02-15T08:56:09.293Z,6.20
2019-02-15T08:58:38.799Z,6.20
2019-02-15T09:01:09.087Z,6.40
2019-02-15T09:03:39.333Z,6.40
2019-02-15T09:06:09.195Z,6.30
2019-02-15T09:08:39.018Z,6.40
2019-02-15T09:11:09.115Z,6.60
2019-02-15T09:13:38.787Z,6.60
2019-02-15T09:16:10.557Z,6.60
2019-02-15T09:18:40.215Z,6.70
2019-02-15T09:21:09.962Z,6.70
2019-02-15T09:23:39.419Z,6.80
2019-02-15T09:26:17.849Z,6.90
2019-02-15T09:28:41.883Z,6.90
2019-02-15T09:31:11.344Z,7.00
2019-02-15T09:33:40.854Z,7.20
2019-02-15T09:36:10.407Z,7.30
2019-02-15T09:38:39.918Z,7.30
2019-02-15T09:41:09.381Z,7.40
2019-02-15T09:43:38.898Z,7.60
2019-02-15T09:46:09.163Z,7.70
2019-02-15T09:48:38.820Z,7.80
2019-02-15T09:51:09.161Z,7.90
2019-02-15T09:53:38.866Z,8.10
2019-02-15T09:56:09.225Z,8.10
2019-02-15T09:58:38.914Z,8.20
2019-02-15T10:01:09.190Z,8.10
2019-02-15T10:03:38.850Z,8.20
2019-02-15T10:06:09.192Z,8.20
2019-02-15T10:08:38.859Z,8.10
2019-02-15T10:11:09.186Z,8.20
2019-02-15T10:13:38.550Z,8.30
2019-02-15T10:16:09.206Z,8.40
2019-02-15T10:18:38.895Z,8.50
2019-02-15T10:21:09.227Z,8.60
2019-02-15T10:23:38.895Z,8.70
2019-02-15T10:26:09.234Z,8.60
2019-02-15T10:28:38.963Z,8.70
2019-02-15T10:31:09.272Z,8.70
2019-02-15T10:33:38.962Z,8.80
2019-02-15T10:36:09.313Z,8.90
2019-02-15T10:38:38.967Z,9.00
2019-02-15T10:41:09.281Z,9.00
2019-02-15T10:43:38.989Z,9.10
2019-02-15T10:46:09.251Z,9.20
2019-02-15T10:48:38.619Z,9.20
2019-02-15T10:51:09.262Z,9.30
2019-02-15T10:53:38.987Z,9.40
2019-02-15T10:56:09.424Z,9.50
2019-02-15T10:58:40.475Z,9.70
2019-02-15T11:01:10.193Z,9.80
2019-02-15T11:03:39.636Z,9.90
2019-02-15T11:06:09.314Z,9.90
2019-02-15T11:08:38.993Z,9.90
2019-02-15T11:11:09.274Z,10.10
2019-02-15T11:13:38.974Z,10.10
2019-02-15T11:16:09.294Z,10.10
2019-02-15T11:18:38.980Z,10.10
2019-02-15T11:21:09.311Z,10.20
2019-02-15T11:23:39.052Z,10.30
2019-02-15T11:26:09.309Z,10.30
2019-02-15T11:28:38.990Z,10.40
2019-02-15T11:31:09.328Z,10.50
2019-02-15T11:33:38.687Z,10.70
2019-02-15T11:36:09.328Z,10.80
2019-02-15T11:38:39.052Z,11.00
2019-02-15T11:41:11.365Z,11.20
2019-02-15T11:43:40.488Z,11.40
2019-02-15T11:46:10.148Z,11.60
2019-02-15T11:48:39.684Z,11.70
2019-02-15T11:51:09.382Z,11.90
2019-02-15T11:53:39.108Z,12.10
2019-02-15T11:56:09.329Z,12.30
2019-02-15T11:58:38.719Z,12.40
2019-02-15T12:01:09.323Z,12.50
2019-02-15T12:03:38.735Z,12.80
2019-02-15T12:06:09.427Z,13.10
2019-02-15T12:08:39.131Z,13.30
2019-02-15T12:11:11.061Z,13.50
2019-02-15T12:13:40.515Z,13.70
2019-02-15T12:16:10.172Z,13.80
2019-02-15T12:18:40.201Z,13.80
2019-02-15T12:21:09.802Z,14.10
2019-02-15T12:23:39.319Z,14.30
2019-02-15T12:26:09.417Z,14.50
2019-02-15T12:28:39.177Z,14.30
2019-02-15T12:31:09.385Z,14.60
2019-02-15T12:33:39.175Z,14.80
2019-02-15T12:36:09.415Z,15.00
2019-02-15T12:38:39.242Z,15.20
2019-02-15T12:41:09.494Z,15.30
2019-02-15T12:43:39.268Z,15.40
2019-02-15T12:46:09.488Z,15.50
2019-02-15T12:48:39.857Z,15.60
2019-02-15T12:51:09.520Z,15.60
2019-02-15T12:53:39.208Z,15.60
2019-02-15T12:56:09.436Z,15.70
2019-02-15T12:58:39.222Z,15.70
2019-02-15T13:01:09.463Z,15.60
2019-02-15T13:03:39.243Z,15.60
2019-02-15T13:06:09.477Z,15.60
2019-02-15T13:08:39.250Z,15.40
2019-02-15T13:11:09.454Z,15.10
2019-02-15T13:13:39.280Z,15.10
2019-02-15T13:16:09.491Z,15.20
2019-02-15T13:18:39.165Z,15.20
2019-02-15T13:21:09.495Z,14.90
2019-02-15T13:23:39.196Z,15.00
2019-02-15T13:26:09.541Z,14.80
2019-02-15T13:28:39.273Z,15.00
2019-02-15T13:31:09.501Z,15.20
2019-02-15T13:33:39.238Z,15.50
2019-02-15T13:36:09.495Z,15.70
2019-02-15T13:38:39.347Z,15.70
2019-02-15T13:41:12.994Z,16.00
2019-02-15T13:43:44.503Z,16.20
2019-02-15T13:46:14.620Z,16.60
2019-02-15T13:48:44.352Z,17.00
2019-02-15T13:51:13.872Z,17.20
2019-02-15T13:53:43.410Z,18.00
2019-02-15T13:56:12.848Z,19.30
2019-02-15T13:58:42.310Z,20.20
2019-02-15T14:01:11.767Z,20.90
2019-02-15T14:03:41.312Z,22.10
2019-02-15T14:06:10.754Z,23.00
2019-02-15T14:08:40.309Z,23.10
2019-02-15T14:11:09.930Z,23.80
2019-02-15T14:13:39.326Z,24.30
2019-02-15T14:16:09.551Z,23.90
2019-02-15T14:18:39.298Z,23.20
2019-02-15T14:21:09.536Z,22.70
2019-02-15T14:23:39.407Z,22.90
2019-02-15T14:26:09.644Z,22.70
2019-02-15T14:28:39.377Z,22.40
2019-02-15T14:31:09.572Z,22.10
2019-02-15T14:33:39.315Z,21.50
2019-02-15T14:36:09.555Z,21.30
2019-02-15T14:38:39.345Z,21.80
2019-02-15T14:41:09.610Z,22.40
2019-02-15T14:43:39.386Z,22.30
2019-02-15T14:46:09.615Z,22.20
2019-02-15T14:48:39.479Z,21.80
2019-02-15T14:51:09.718Z,21.40
2019-02-15T14:53:39.366Z,21.40
2019-02-15T14:56:09.664Z,21.60
2019-02-15T14:58:40.675Z,22.00
2019-02-15T15:01:10.427Z,21.90
2019-02-15T15:03:39.854Z,21.90
2019-02-15T15:06:09.678Z,22.00
2019-02-15T15:08:39.402Z,22.30
2019-02-15T15:11:09.667Z,22.30
2019-02-15T15:13:39.349Z,22.50
2019-02-15T15:16:09.679Z,22.60
2019-02-15T15:18:39.368Z,22.40
2019-02-15T15:21:09.675Z,23.40
2019-02-15T15:23:39.363Z,24.00
2019-02-15T15:26:12.038Z,24.40
2019-02-15T15:28:41.388Z,24.80
2019-02-15T15:31:12.800Z,25.50
2019-02-15T15:33:42.736Z,25.50
2019-02-15T15:36:12.487Z,26.00
2019-02-15T15:38:42.562Z,26.20
2019-02-15T15:41:12.094Z,26.10
2019-02-15T15:43:41.460Z,25.50
2019-02-15T15:46:11.129Z,24.90
2019-02-15T15:48:40.527Z,24.70
2019-02-15T15:51:10.106Z,24.10
2019-02-15T15:53:39.749Z,24.00
2019-02-15T15:56:09.697Z,23.70
2019-02-15T15:58:39.486Z,23.70
2019-02-15T16:01:09.783Z,23.00
2019-02-15T16:03:39.496Z,22.40
2019-02-15T16:06:09.772Z,21.00
2019-02-15T16:08:39.472Z,19.50
2019-02-15T16:11:09.750Z,18.10
2019-02-15T16:13:39.424Z,16.90
2019-02-15T16:16:10.014Z,15.70
2019-02-15T16:18:39.540Z,14.70
2019-02-15T16:21:09.792Z,13.90
2019-02-15T16:23:39.618Z,13.30
2019-02-15T16:26:09.809Z,12.80
2019-02-15T16:28:39.476Z,12.40
2019-02-15T16:31:09.830Z,12.00
2019-02-15T16:33:39.463Z,11.60
2019-02-15T16:36:10.018Z,11.30
2019-02-15T16:38:39.536Z,11.10
2019-02-15T16:41:09.794Z,10.80
2019-02-15T16:43:42.507Z,10.70
2019-02-15T16:46:12.058Z,10.50
2019-02-15T16:48:42.305Z,10.40
2019-02-15T16:51:11.970Z,10.30
2019-02-15T16:53:41.574Z,10.10
2019-02-15T16:56:11.147Z,10.00
2019-02-15T16:58:40.848Z,9.90
2019-02-15T17:01:10.585Z,9.80
2019-02-15T17:03:40.041Z,9.70
2019-02-15T17:06:09.907Z,9.60
2019-02-15T17:08:39.619Z,9.50
2019-02-15T17:11:09.884Z,9.50
2019-02-15T17:13:39.629Z,9.40
2019-02-15T17:16:09.881Z,9.30
2019-02-15T17:18:39.674Z,9.20
2019-02-15T17:21:10.028Z,9.10
2019-02-15T17:23:39.766Z,9.00
2019-02-15T17:26:10.200Z,9.00
2019-02-15T17:28:39.692Z,8.90
2019-02-15T17:31:09.886Z,8.90
2019-02-15T17:33:39.253Z,8.90
2019-02-15T17:36:09.890Z,8.80
2019-02-15T17:38:39.650Z,8.70
2019-02-15T17:41:09.966Z,8.70
2019-02-15T17:43:39.598Z,8.60
2019-02-15T17:46:09.918Z,8.70
2019-02-15T17:48:39.660Z,8.70
2019-02-15T17:51:09.910Z,8.80
2019-02-15T17:53:39.294Z,8.70
2019-02-15T17:56:09.886Z,8.70
2019-02-15T17:58:39.616Z,8.60
2019-02-15T18:01:09.895Z,8.50
2019-02-15T18:03:42.173Z,8.50
2019-02-15T18:06:12.191Z,8.40
2019-02-15T18:08:41.687Z,8.30
2019-02-15T18:11:11.131Z,8.30
2019-02-15T18:13:40.689Z,8.10
2019-02-15T18:16:10.186Z,8.00
2019-02-15T18:18:39.720Z,7.90
2019-02-15T18:21:09.963Z,7.90
2019-02-15T18:23:39.711Z,7.90
2019-02-15T18:26:09.968Z,7.80
2019-02-15T18:28:39.725Z,7.80
2019-02-15T18:31:09.931Z,7.80
2019-02-15T18:33:39.755Z,7.80
2019-02-15T18:36:09.993Z,7.80
2019-02-15T18:38:40.777Z,7.70
2019-02-15T18:41:13.586Z,7.70
2019-02-15T18:43:41.747Z,7.60
2019-02-15T18:46:11.252Z,7.60
2019-02-15T18:48:40.825Z,7.60
2019-02-15T18:51:10.377Z,7.50
2019-02-15T18:53:39.925Z,7.50
2019-02-15T18:56:09.988Z,7.50
2019-02-15T18:58:39.687Z,7.40
2019-02-15T19:01:09.980Z,7.40
2019-02-15T19:03:39.538Z,7.40
2019-02-15T19:06:10.054Z,7.40
2019-02-15T19:08:40.802Z,7.40
2019-02-15T19:11:10.309Z,7.40
2019-02-15T19:13:39.851Z,7.30
2019-02-15T19:16:10.002Z,7.30
2019-02-15T19:18:39.808Z,7.30
2019-02-15T19:21:10.022Z,7.20
2019-02-15T19:23:39.486Z,7.20
2019-02-15T19:26:10.038Z,7.20
2019-02-15T19:28:40.068Z,7.10
2019-02-15T19:31:10.098Z,7.10
2019-02-15T19:33:39.817Z,7.10
2019-02-15T19:36:10.087Z,7.10
2019-02-15T19:38:39.872Z,7.10
2019-02-15T19:41:10.078Z,7.10
2019-02-15T19:43:39.778Z,7.00
2019-02-15T19:46:10.084Z,6.90
2019-02-15T19:48:39.794Z,6.90
2019-02-15T19:51:10.073Z,6.80
2019-02-15T19:53:39.812Z,6.80
2019-02-15T19:56:10.123Z,6.80
2019-02-15T19:58:43.719Z,6.80
2019-02-15T20:01:11.011Z,6.80
2019-02-15T20:03:40.915Z,6.70
2019-02-15T20:06:10.588Z,6.60
2019-02-15T20:08:40.130Z,6.50
2019-02-15T20:11:10.178Z,6.50
2019-02-15T20:13:39.948Z,6.40
2019-02-15T20:16:10.551Z,6.40
2019-02-15T20:18:40.087Z,6.30
2019-02-15T20:21:10.895Z,6.20
2019-02-15T20:23:40.477Z,6.20
2019-02-15T20:26:10.227Z,6.10
2019-02-15T20:28:39.914Z,6.10
2019-02-15T20:31:10.187Z,6.00
2019-02-15T20:33:39.933Z,6.00
2019-02-15T20:36:10.204Z,5.90
2019-02-15T20:38:39.891Z,6.00
2019-02-15T20:41:10.185Z,6.00
2019-02-15T20:43:39.865Z,6.00
2019-02-15T20:46:10.235Z,5.90
2019-02-15T20:48:39.911Z,5.90
2019-02-15T20:51:10.320Z,5.90
2019-02-15T20:53:40.039Z,5.80
2019-02-15T20:56:10.298Z,5.80
2019-02-15T20:58:40.054Z,5.90
2019-02-15T21:01:10.307Z,5.80
2019-02-15T21:03:41.889Z,5.80
2019-02-15T21:06:11.747Z,5.80
2019-02-15T21:08:41.824Z,5.70
2019-02-15T21:11:11.421Z,5.70
2019-02-15T21:13:41.057Z,5.70
2019-02-15T21:16:10.562Z,5.70
2019-02-15T21:18:40.192Z,5.70
2019-02-15T21:21:10.232Z,5.60
2019-02-15T21:23:39.650Z,5.60
2019-02-15T21:26:10.566Z,5.60
2019-02-15T21:28:40.188Z,5.50
2019-02-15T21:31:10.308Z,5.60
2019-02-15T21:33:41.807Z,5.50
2019-02-15T21:36:11.759Z,5.50
2019-02-15T21:38:41.610Z,5.50
2019-02-15T21:41:11.476Z,5.40
2019-02-15T21:43:41.063Z,5.40
2019-02-15T21:46:10.627Z,5.30
2019-02-15T21:48:43.441Z,5.30
2019-02-15T21:51:13.227Z,5.30
2019-02-15T21:53:42.713Z,5.30
2019-02-15T21:56:12.255Z,5.30
2019-02-15T21:58:42.136Z,5.30
2019-02-15T22:01:14.374Z,5.20
2019-02-15T22:03:44.610Z,5.20
2019-02-15T22:06:14.248Z,5.10
2019-02-15T22:08:43.788Z,5.10
2019-02-15T22:11:13.270Z,5.00
2019-02-15T22:13:42.968Z,5.00
2019-02-15T22:16:12.531Z,4.90
2019-02-15T22:18:42.117Z,4.80
2019-02-15T22:21:11.659Z,4.80
2019-02-15T22:23:41.134Z,4.80
2019-02-15T22:26:10.692Z,4.70
2019-02-15T22:28:40.306Z,4.70
2019-02-15T22:31:11.914Z,4.70
2019-02-15T22:33:41.669Z,4.70
2019-02-15T22:36:11.334Z,4.60
2019-02-15T22:38:42.440Z,4.50
2019-02-15T22:41:14.156Z,4.50
2019-02-15T22:43:45.447Z,4.50
2019-02-15T22:46:15.410Z,4.50
2019-02-15T22:48:45.103Z,4.50
2019-02-15T22:51:14.717Z,4.50
2019-02-15T22:53:44.130Z,4.50
2019-02-15T22:56:13.651Z,4.40
2019-02-15T22:58:44.640Z,4.40
2019-02-15T23:01:15.079Z,4.40
2019-02-15T23:03:44.607Z,4.40
2019-02-15T23:06:14.263Z,4.40
2019-02-15T23:08:44.090Z,4.40
2019-02-15T23:11:13.589Z,4.30
2019-02-15T23:13:43.152Z,4.30
2019-02-15T23:16:12.692Z,4.30
2019-02-15T23:18:42.174Z,4.20
2019-02-15T23:21:11.701Z,4.20
2019-02-15T23:23:41.274Z,4.20
2019-02-15T23:26:10.746Z,4.20
2019-02-15T23:28:40.243Z,4.20
2019-02-15T23:31:10.475Z,4.10
2019-02-15T23:33:40.216Z,4.10
2019-02-15T23:36:10.400Z,4.10
2019-02-15T23:38:40.192Z,4.10
2019-02-15T23:41:12.567Z,4.10
2019-02-15T23:43:42.166Z,4.10
2019-02-15T23:46:11.697Z,4.10
2019-02-15T23:48:41.242Z,4.10
2019-02-15T23:51:10.757Z,4.00
2019-02-15T23:53:40.283Z,4.00
2019-02-15T23:56:10.499Z,4.00
2019-02-15T23:58:40.175Z,3.90
